Time;durP1;ratioP1;P1;durP2;ratioP2;P2;SDS_P1;SDS_P2;PMS_P1;PMS_P2;Temp;Humidity;BMP_temperature;BMP_pressure;BME280_temperature;BME280_humidity;BME280_pressure;Samples;Min_cycle;Max_cycle;Signal;HPM_P1;HPM_P2
2022/05/26 00:00:13;;;;;;;5.17;2.47;;;;;;;19.12;43.09;100050.02;1694396;83;21692;-69
2022/05/26 00:02:40;;;;;;;5.93;2.60;;;;;;;19.08;43.31;100046.36;1698863;83;22309;-68
2022/05/26 00:05:08;;;;;;;5.13;2.53;;;;;;;19.06;43.48;100047.27;1691883;83;21696;-69
2022/05/26 00:07:35;;;;;;;6.07;2.70;;;;;;;19.03;43.73;100044.64;1706563;83;22414;-69
2022/05/26 00:10:03;;;;;;;6.27;2.60;;;;;;;19.02;44.19;100051.72;1693927;83;21712;-68
2022/05/26 00:12:32;;;;;;;7.00;2.63;;;;;;;19.00;44.06;100042.58;1692811;83;22208;-68
2022/05/26 00:15:01;;;;;;;4.47;2.57;;;;;;;19.03;44.19;100035.73;1695221;83;21736;-68
2022/05/26 00:17:28;;;;;;;4.97;2.53;;;;;;;19.01;44.31;100033.89;1693316;83;21790;-68
2022/05/26 00:19:56;;;;;;;6.07;2.90;;;;;;;18.98;44.54;100029.36;1692327;83;21755;-68
2022/05/26 00:22:23;;;;;;;5.13;2.60;;;;;;;18.96;44.83;100032.97;1695421;83;21722;-69
2022/05/26 00:24:51;;;;;;;4.90;2.80;;;;;;;18.89;45.15;100025.14;1693575;83;21707;-69
2022/05/26 00:27:18;;;;;;;4.97;2.90;;;;;;;18.87;45.23;100028.15;1693612;83;21746;-69
2022/05/26 00:29:45;;;;;;;5.33;2.57;;;;;;;18.84;45.55;100016.63;1694354;83;21680;-68
2022/05/26 00:32:12;;;;;;;6.37;2.73;;;;;;;18.82;45.80;100015.35;1692665;83;21779;-68
2022/05/26 00:34:39;;;;;;;6.37;2.60;;;;;;;18.78;46.06;100009.80;1698705;83;21708;-68
2022/05/26 00:37:10;;;;;;;5.20;2.57;;;;;;;18.78;46.03;100014.42;1702246;83;22167;-68
2022/05/26 00:39:37;;;;;;;4.10;2.60;;;;;;;18.78;46.12;100016.56;1699483;83;21779;-69
2022/05/26 00:42:05;;;;;;;6.20;2.40;;;;;;;18.79;46.18;100016.82;1694168;83;21738;-68
2022/05/26 00:44:33;;;;;;;4.37;2.47;;;;;;;18.80;46.04;100020.31;1709220;83;21753;-69
2022/05/26 00:47:17;;;;;;;3.40;2.13;;;;;;;18.82;46.02;100012.11;1692362;83;21715;-69
2022/05/26 00:49:59;;;;;;;5.27;2.20;;;;;;;18.82;46.02;100012.11;1694079;83;21114;-68
2022/05/26 00:52:42;;;;;;;4.95;2.70;;;;;;;18.83;46.06;100014.25;1700532;83;21734;-68
2022/05/26 00:55:16;;;;;;;4.77;2.23;;;;;;;18.83;46.13;100001.52;1693903;83;21056;-68
2022/05/26 00:57:47;;;;;;;3.23;2.00;;;;;;;18.84;46.02;100002.30;1686774;83;21810;-69
2022/05/26 01:00:21;;;;;;;4.08;2.12;;;;;;;18.84;45.71;99990.92;1694396;83;21862;-68
2022/05/26 01:03:05;;;;;;;6.07;1.93;;;;;;;18.87;45.28;99993.53;1694899;83;20995;-68
2022/05/26 01:05:45;;;;;;;5.70;2.27;;;;;;;18.89;44.95;99994.80;1694467;83;21754;-68
2022/05/26 01:08:23;;;;;;;4.40;2.30;;;;;;;18.94;44.46;99994.60;1691928;83;21806;-69
2022/05/26 01:10:50;;;;;;;5.13;2.00;;;;;;;19.00;44.07;99999.84;1707879;83;22175;-68
2022/05/26 01:13:18;;;;;;;6.23;2.10;;;;;;;19.05;43.75;99990.98;1695095;83;21746;-68
2022/05/26 01:15:59;;;;;;;4.27;1.90;;;;;;;19.10;43.63;99977.25;1692527;83;22943;-69
2022/05/26 01:18:43;;;;;;;3.93;1.63;;;;;;;19.15;43.20;99980.31;1750291;80;21676;-69
2022/05/26 01:21:27;;;;;;;5.37;1.70;;;;;;;19.21;42.71;99977.08;1749288;80;21672;-70
2022/05/26 01:24:02;;;;;;;3.00;1.77;;;;;;;19.27;42.50;99972.27;1750993;80;21679;-69
2022/05/26 01:27:17;;;;;;;5.57;1.90;;;;;;;19.33;42.40;99964.75;1760088;80;22176;-69
2022/05/26 01:30:17;;;;;;;4.90;1.93;;;;;;;19.37;42.36;99961.61;1755531;80;22218;-69
2022/05/26 01:33:25;;;;;;;5.30;1.90;;;;;;;19.39;41.91;99954.75;1767031;80;22167;-70
2022/05/26 01:36:17;;;;;;;4.90;1.60;;;;;;;19.42;41.47;99954.09;1699864;83;22228;-69
2022/05/26 01:39:06;;;;;;;5.00;1.60;;;;;;;19.47;41.60;99949.59;1657180;84;21790;-69
2022/05/26 01:41:50;;;;;;;5.40;1.80;;;;;;;19.45;41.35;99952.64;1683217;83;21553;-70
2022/05/26 01:44:50;;;;;;;4.13;1.77;;;;;;;19.45;41.35;99952.64;1706860;83;20968;-69
2022/05/26 01:47:44;;;;;;;3.97;1.53;;;;;;;19.48;41.21;99966.06;1714004;83;21904;-68
2022/05/26 01:50:38;;;;;;;2.60;1.53;;;;;;;19.49;41.12;99967.67;1746657;80;20939;-69
2022/05/26 01:53:32;;;;;;;3.50;1.70;;;;;;;19.50;41.23;99962.47;1748557;80;21651;-70
2022/05/26 01:56:22;;;;;;;3.47;1.60;;;;;;;19.50;41.12;99959.20;1748769;80;21743;-71
2022/05/26 01:59:01;;;;;;;5.10;1.90;;;;;;;19.50;41.00;99950.28;1748807;80;21628;-69
2022/05/26 02:01:32;;;;;;;5.60;1.90;;;;;;;19.49;40.80;99939.23;1766035;80;21524;-69
2022/05/26 02:03:59;;;;;;;2.93;1.40;;;;;;;19.48;40.75;99941.69;1751369;80;21696;-68
2022/05/26 02:06:31;;;;;;;5.33;1.70;;;;;;;19.48;40.75;99941.69;1748556;80;21089;-69
2022/05/26 02:09:18;;;;;;;4.43;1.67;;;;;;;19.47;40.28;99931.98;1750669;80;21667;-69
2022/05/26 02:12:13;;;;;;;6.60;2.00;;;;;;;19.45;40.34;99935.83;1751115;80;20984;-69
2022/05/26 02:15:00;;;;;;;3.37;1.50;;;;;;;19.45;40.39;99929.62;1759032;80;20924;-70
2022/05/26 02:17:30;;;;;;;4.47;1.70;;;;;;;19.44;40.36;99927.45;1760717;80;21000;-70
2022/05/26 02:20:11;;;;;;;3.58;1.65;;;;;;;19.43;40.23;99921.81;1747904;80;21134;-70
2022/05/26 02:22:49;;;;;;;2.47;1.60;;;;;;;19.42;40.30;99924.30;1749430;80;21004;-70
2022/05/26 02:25:21;;;;;;;4.87;1.80;;;;;;;19.40;40.25;99920.33;1749727;80;21070;-69
2022/05/26 02:27:55;;;;;;;3.23;1.80;;;;;;;19.39;40.24;99920.89;1747777;80;21436;-70
2022/05/26 02:30:30;;;;;;;5.00;1.70;;;;;;;19.37;40.16;99921.78;1749543;80;20976;-68
2022/05/26 02:32:58;;;;;;;3.40;1.60;;;;;;;19.37;40.16;99921.78;1750515;80;20995;-68
2022/05/26 02:35:33;;;;;;;4.90;2.13;;;;;;;19.35;40.30;99922.69;1751639;80;21798;-69
2022/05/26 02:38:17;;;;;;;4.67;1.40;;;;;;;19.35;40.56;99921.91;1748028;80;21042;-68
2022/05/26 02:40:44;;;;;;;4.17;1.50;;;;;;;19.33;40.48;99918.72;1756749;80;21148;-70
2022/05/26 02:43:18;;;;;;;2.50;1.53;;;;;;;19.32;40.44;99922.56;1756607;80;21724;-69
2022/05/26 02:46:09;;;;;;;4.50;1.80;;;;;;;19.30;40.43;99918.03;1747840;80;21505;-69
2022/05/26 02:48:42;;;;;;;3.92;1.85;;;;;;;19.30;40.40;99926.15;1747726;80;21093;-69
2022/05/26 02:51:26;;;;;;;5.40;1.97;;;;;;;19.22;41.84;99942.70;1756663;80;20999;-70
2022/05/26 02:54:18;;;;;;;4.67;1.73;;;;;;;19.22;41.84;99942.70;1754803;80;21582;-69
2022/05/26 02:57:39;;;;;;;5.43;1.90;;;;;;;19.17;42.31;99945.59;1749295;80;21171;-69
2022/05/26 03:00:17;;;;;;;3.53;1.80;;;;;;;19.08;43.11;99947.56;1749302;80;21651;-70
2022/05/26 03:03:07;;;;;;;4.60;1.73;;;;;;;18.87;44.42;99948.89;1748705;80;21776;-69
2022/05/26 03:06:01;;;;;;;4.83;1.43;;;;;;;18.74;44.69;99939.32;1749681;80;21031;-70
2022/05/26 03:08:30;;;;;;;3.40;1.90;;;;;;;18.74;44.69;99939.32;1761498;80;21095;-70
2022/05/26 03:11:13;;;;;;;4.47;1.70;;;;;;;18.68;45.07;99933.83;1750324;80;21743;-70
2022/05/26 03:13:41;;;;;;;5.93;1.73;;;;;;;18.63;45.26;99934.03;1751224;80;22186;-70
2022/05/26 03:16:08;;;;;;;2.93;1.67;;;;;;;18.57;45.29;99921.02;1750759;80;21721;-70
2022/05/26 03:18:36;;;;;;;7.07;2.03;;;;;;;18.57;45.47;99922.37;1748705;80;21730;-69
2022/05/26 03:21:04;;;;;;;4.73;1.83;;;;;;;18.54;45.33;99925.16;1751155;80;21700;-69
2022/05/26 03:23:31;;;;;;;7.07;1.80;;;;;;;18.53;45.30;99921.44;1750779;80;21612;-69
2022/05/26 03:25:59;;;;;;;2.80;1.67;;;;;;;18.49;45.42;99918.56;1753125;80;21703;-68
2022/05/26 03:28:27;;;;;;;4.23;1.80;;;;;;;18.45;45.17;99914.37;1750771;80;21750;-69
2022/05/26 03:30:54;;;;;;;3.03;1.70;;;;;;;18.44;45.16;99912.00;1748752;80;22246;-69
2022/05/26 03:33:21;;;;;;;4.17;1.87;;;;;;;18.44;45.03;99912.00;1770414;80;21825;-70
2022/05/26 03:41:25;;;;;;;4.30;2.00;;;;;;;18.27;48.75;99926.39;1748318;80;21711;-68
2022/05/26 03:43:58;;;;;;;4.17;2.00;;;;;;;18.05;50.91;99930.89;1748269;80;21652;-69
2022/05/26 03:46:26;;;;;;;4.97;2.10;;;;;;;17.78;52.41;99925.31;1749194;80;21695;-69
2022/05/26 03:48:54;;;;;;;3.30;2.07;;;;;;;17.50;53.88;99930.22;1748316;80;21652;-68
2022/05/26 03:51:21;;;;;;;3.60;2.30;;;;;;;17.21;55.90;99982.16;1769051;80;21664;-69
2022/05/26 03:53:48;;;;;;;5.63;2.60;;;;;;;16.85;57.36;99926.53;1756172;80;21745;-69
2022/05/26 03:56:17;;;;;;;4.47;2.30;;;;;;;16.63;58.60;99925.25;1748103;80;21824;-69
2022/05/26 03:58:45;;;;;;;2.90;2.13;;;;;;;16.42;60.18;99929.06;1754752;80;21415;-69
2022/05/26 04:01:12;;;;;;;4.17;2.53;;;;;;;16.11;61.89;99924.47;1756677;80;21881;-69
2022/05/26 04:03:40;;;;;;;5.53;2.47;;;;;;;16.11;61.89;99924.47;1747203;80;22015;-69
2022/05/26 04:06:06;;;;;;;8.27;3.67;;;;;;;16.05;62.31;99927.59;1750635;80;21364;-69
2022/05/26 04:08:33;;;;;;;4.13;2.40;;;;;;;15.96;62.91;99924.87;1750234;80;21360;-69
2022/05/26 04:11:00;;;;;;;4.83;2.40;;;;;;;15.94;63.39;99922.47;1747965;80;22048;-69
2022/05/26 04:13:30;;;;;;;4.63;2.83;;;;;;;15.92;63.82;99926.57;1750543;80;21266;-70
2022/05/26 04:15:57;;;;;;;5.13;2.70;;;;;;;15.90;64.42;99932.28;1754594;80;21466;-68
2022/05/26 04:18:24;;;;;;;6.07;2.90;;;;;;;15.88;64.91;99935.03;1748233;80;21300;-69
2022/05/26 04:20:51;;;;;;;5.23;3.00;;;;;;;15.85;65.29;99936.98;1749733;80;21256;-69
2022/05/26 04:23:19;;;;;;;4.53;2.80;;;;;;;15.83;66.09;99939.21;1747525;80;21294;-68
2022/05/26 04:25:47;;;;;;;5.47;3.00;;;;;;;15.76;66.57;99930.22;1749649;80;21174;-70
2022/05/26 04:28:17;;;;;;;3.70;2.70;;;;;;;15.71;66.89;99928.42;1749924;80;21392;-69
2022/05/26 04:30:45;;;;;;;5.70;2.63;;;;;;;15.70;67.41;99927.40;1747934;80;21275;-68
2022/05/26 04:33:12;;;;;;;4.90;2.90;;;;;;;15.65;68.02;99935.55;1756968;80;21773;-69
2022/05/26 04:35:40;;;;;;;5.80;3.17;;;;;;;15.60;68.38;99939.17;1757138;80;21613;-70
2022/05/26 04:38:07;;;;;;;7.53;3.80;;;;;;;15.55;68.99;99941.18;1757169;80;21757;-70
2022/05/26 04:40:35;;;;;;;5.60;3.40;;;;;;;15.51;69.39;99942.34;1752741;80;21652;-70
2022/05/26 04:43:02;;;;;;;6.23;3.50;;;;;;;15.47;70.17;99938.12;1750854;80;21346;-70
2022/05/26 04:45:30;;;;;;;7.37;3.60;;;;;;;15.39;70.58;99942.08;1748403;80;21725;-70
2022/05/26 04:47:57;;;;;;;7.43;3.53;;;;;;;15.33;70.95;99937.91;1751136;80;21280;-70
2022/05/26 04:50:25;;;;;;;3.97;2.93;;;;;;;15.25;71.54;99938.88;1760313;80;21361;-70
2022/05/26 04:52:51;;;;;;;5.90;3.40;;;;;;;15.21;71.91;99942.48;1749040;80;21384;-68
2022/05/26 04:55:18;;;;;;;5.67;3.40;;;;;;;15.18;72.27;99939.05;1750082;80;21190;-69
2022/05/26 04:57:48;;;;;;;6.13;3.47;;;;;;;15.15;72.47;99936.41;1763362;80;21663;-69
2022/05/26 05:00:17;;;;;;;6.97;3.97;;;;;;;15.13;72.73;99928.39;1750147;80;21349;-69
2022/05/26 05:02:45;;;;;;;5.80;3.43;;;;;;;15.08;73.13;99929.30;1750738;80;21390;-69
2022/05/26 05:05:12;;;;;;;5.13;3.53;;;;;;;15.02;73.35;99925.13;1748874;80;21175;-70
2022/05/26 05:07:41;;;;;;;6.27;3.67;;;;;;;15.02;73.52;99926.48;1748107;80;21243;-70
2022/05/26 05:10:09;;;;;;;6.73;3.90;;;;;;;14.99;73.90;99929.22;1752317;80;21159;-71
2022/05/26 05:12:36;;;;;;;9.53;3.57;;;;;;;14.92;74.11;99914.59;1746847;80;21727;-71
2022/05/26 05:15:08;;;;;;;6.87;3.43;;;;;;;14.90;74.24;99922.95;1749247;80;21182;-71
2022/05/26 05:17:36;;;;;;;4.78;3.15;;;;;;;14.88;74.29;99930.53;1749159;80;27398;-69
2022/05/26 05:20:03;;;;;;;5.53;3.50;;;;;;;14.87;74.41;99926.27;1747918;80;20988;-69
2022/05/26 05:22:37;;;;;;;7.73;3.73;;;;;;;14.88;74.66;99928.40;1752034;80;21218;-70
2022/05/26 05:25:08;;;;;;;7.17;4.00;;;;;;;14.86;74.86;99926.55;1758994;80;21610;-70
2022/05/26 05:27:39;;;;;;;6.45;3.70;;;;;;;14.89;75.03;99929.98;1748338;80;21142;-70
2022/05/26 05:30:15;;;;;;;6.35;4.00;;;;;;;14.93;75.08;99931.76;1751220;80;21679;-69
2022/05/26 05:32:46;;;;;;;6.67;4.23;;;;;;;15.00;75.21;99935.38;1748660;80;21038;-70
2022/05/26 05:35:23;;;;;;;6.90;4.05;;;;;;;15.01;75.23;99935.09;1760834;80;21297;-69
2022/05/26 05:37:50;;;;;;;5.50;4.20;;;;;;;15.03;75.37;99937.47;1765132;80;21767;-69
2022/05/26 05:40:17;;;;;;;7.07;4.10;;;;;;;15.02;75.36;99931.86;1751099;80;21359;-70
2022/05/26 05:42:44;;;;;;;7.20;4.33;;;;;;;15.04;75.60;99931.54;1760111;80;21197;-69
2022/05/26 05:45:12;;;;;;;7.23;3.90;;;;;;;15.04;75.82;99937.73;1751340;80;21138;-69
2022/05/26 05:47:41;;;;;;;5.30;3.60;;;;;;;15.04;76.22;99951.71;1750791;80;21609;-70
2022/05/26 05:50:08;;;;;;;6.87;4.20;;;;;;;15.01;76.46;99946.41;1748216;80;21270;-70
2022/05/26 05:52:36;;;;;;;8.37;4.33;;;;;;;15.00;76.78;99947.48;1750216;80;21212;-69
2022/05/26 05:55:04;;;;;;;7.77;4.30;;;;;;;14.99;76.94;99952.63;1749832;80;21157;-69
2022/05/26 05:57:31;;;;;;;6.23;3.97;;;;;;;14.98;77.47;99945.66;1749968;80;21277;-69
2022/05/26 05:59:58;;;;;;;6.77;3.97;;;;;;;14.96;77.69;99939.22;1754557;80;21281;-70
2022/05/26 06:02:25;;;;;;;6.10;4.10;;;;;;;15.00;77.86;99946.14;1748252;80;21564;-69
2022/05/26 06:04:52;;;;;;;8.27;4.20;;;;;;;15.02;78.21;99946.64;1748998;80;21207;-70
2022/05/26 06:07:21;;;;;;;5.17;3.80;;;;;;;15.04;78.26;99945.81;1750924;80;21837;-70
2022/05/26 06:09:50;;;;;;;7.40;4.30;;;;;;;15.09;78.57;99945.69;1748038;80;21927;-69
2022/05/26 06:12:17;;;;;;;5.57;4.17;;;;;;;15.11;78.72;99946.74;1755483;80;21193;-70
2022/05/26 06:14:46;;;;;;;7.07;3.90;;;;;;;15.15;78.83;99952.55;1751323;80;21773;-69
2022/05/26 06:17:13;;;;;;;6.03;4.80;;;;;;;15.17;79.17;99944.20;1761115;80;21320;-70
2022/05/26 06:19:40;;;;;;;5.73;3.80;;;;;;;15.16;79.41;99952.00;1751549;80;21809;-69
2022/05/26 06:22:16;;;;;;;7.13;5.13;;;;;;;15.18;79.63;99954.64;1751110;80;21258;-70
2022/05/26 06:24:43;;;;;;;8.20;4.70;;;;;;;15.17;80.05;99955.75;1747899;80;21265;-70
2022/05/26 06:29:58;;;;;;;6.10;4.20;;;;;;;15.14;80.71;99967.66;1751279;80;21234;-71
2022/05/26 06:38:00;;;;;;;7.60;4.13;;;;;;;15.14;82.32;99964.42;1764680;80;21247;-69
2022/05/26 06:40:31;;;;;;;5.83;4.40;;;;;;;15.16;82.79;99964.10;1749771;80;21130;-69
2022/05/26 06:42:59;;;;;;;5.10;3.90;;;;;;;15.23;83.10;99965.30;1748558;80;21148;-69
2022/05/26 06:45:27;;;;;;;4.77;3.70;;;;;;;15.31;83.39;99964.34;1745814;80;21227;-70
2022/05/26 06:47:54;;;;;;;4.27;3.13;;;;;;;15.33;83.73;99955.39;1745820;80;21217;-69
2022/05/26 06:50:21;;;;;;;5.63;3.73;;;;;;;15.37;83.87;99941.05;1754336;80;21206;-68
2022/05/26 06:52:48;;;;;;;6.07;3.80;;;;;;;15.44;83.78;99944.66;1750515;80;21809;-70
2022/05/26 06:55:16;;;;;;;5.47;3.63;;;;;;;15.50;83.85;99946.14;1750906;80;21257;-69
2022/05/26 06:57:44;;;;;;;5.70;3.17;;;;;;;15.56;83.84;99961.05;1748337;80;21617;-71
2022/05/26 07:00:14;;;;;;;4.27;3.30;;;;;;;15.63;83.87;99973.56;1751692;80;21225;-70
2022/05/26 07:02:43;;;;;;;4.03;2.90;;;;;;;15.69;83.72;99984.49;1750900;80;21356;-70
2022/05/26 07:05:11;;;;;;;4.30;2.20;;;;;;;15.72;83.40;99995.17;1748092;80;22199;-70
2022/05/26 07:07:40;;;;;;;3.63;2.30;;;;;;;15.72;82.93;99995.17;1765582;80;21188;-70
2022/05/26 07:10:12;;;;;;;3.37;2.13;;;;;;;15.73;82.58;99996.80;1750722;80;22442;-69
2022/05/26 07:12:38;;;;;;;4.00;2.20;;;;;;;15.76;82.29;99996.19;1747664;80;21300;-69
2022/05/26 07:15:07;;;;;;;2.97;2.07;;;;;;;15.76;81.80;100006.13;1749856;80;21211;-70
2022/05/26 07:17:34;;;;;;;2.50;1.60;;;;;;;15.74;81.19;100007.80;1757510;80;21239;-69
2022/05/26 07:20:01;;;;;;;2.67;1.70;;;;;;;15.66;80.41;99997.22;1747430;80;21209;-69
2022/05/26 07:22:32;;;;;;;3.67;1.80;;;;;;;15.60;79.60;100012.41;1751906;80;21128;-70
2022/05/26 07:24:58;;;;;;;3.30;1.70;;;;;;;15.51;79.69;100004.25;1772479;80;21234;-70
2022/05/26 07:27:25;;;;;;;2.60;1.80;;;;;;;15.42;79.71;100000.13;1748743;80;21649;-70
2022/05/26 07:29:53;;;;;;;3.10;1.83;;;;;;;15.36;79.68;100002.67;1751066;80;21412;-70
2022/05/26 07:32:20;;;;;;;4.13;2.00;;;;;;;15.26;79.48;100005.58;1760853;80;20996;-69
2022/05/26 07:50:00;;;;;;;3.27;2.10;;;;;;;15.83;80.20;100012.70;1793406;79;22013;-71
2022/05/26 07:52:27;;;;;;;4.67;2.73;;;;;;;15.80;79.67;100019.26;1785376;80;20820;-71
2022/05/26 07:54:54;;;;;;;5.80;2.40;;;;;;;15.78;79.32;100020.10;1787609;79;21192;-70
2022/05/26 07:57:25;;;;;;;2.87;2.07;;;;;;;15.78;78.87;100034.36;1804474;79;21652;-70
2022/05/26 07:59:53;;;;;;;3.08;2.08;;;;;;;15.77;78.42;100034.67;1785183;80;21234;-71
2022/05/26 08:02:19;;;;;;;3.33;2.00;;;;;;;15.74;77.96;100033.37;1785498;80;20876;-71
2022/05/26 08:04:47;;;;;;;4.17;2.20;;;;;;;15.71;77.52;100037.47;1785531;79;21187;-70
2022/05/26 08:07:14;;;;;;;4.57;2.57;;;;;;;15.70;77.53;100035.09;1785384;80;21395;-71
2022/05/26 08:09:42;;;;;;;3.30;2.30;;;;;;;15.70;77.71;100037.78;1786539;79;21163;-72
2022/05/26 08:12:12;;;;;;;5.67;2.70;;;;;;;15.69;77.47;100040.21;1786209;79;21204;-71
2022/05/26 08:14:41;;;;;;;3.33;2.60;;;;;;;15.67;77.36;100031.66;1803348;79;21180;-70
2022/05/26 08:17:09;;;;;;;3.50;2.37;;;;;;;15.66;77.18;100049.71;1786744;79;21681;-70
2022/05/26 08:19:37;;;;;;;3.00;2.00;;;;;;;15.69;76.92;100036.17;1794800;79;21158;-72
2022/05/26 08:22:05;;;;;;;4.23;2.70;;;;;;;15.73;77.00;100045.78;1817463;79;21095;-71
2022/05/26 08:24:33;;;;;;;3.63;2.40;;;;;;;15.77;76.92;100052.17;1817180;79;21847;-71
2022/05/26 08:27:00;;;;;;;3.43;2.20;;;;;;;15.82;76.69;100057.43;1817577;78;21189;-71
2022/05/26 08:29:27;;;;;;;3.00;2.30;;;;;;;15.92;76.16;100069.31;1816104;79;21287;-72
2022/05/26 08:31:54;;;;;;;3.17;2.10;;;;;;;16.04;75.32;100057.45;1808219;79;22143;-72
2022/05/26 08:34:22;;;;;;;3.03;2.30;;;;;;;16.18;74.80;100062.23;1792997;78;21188;-72
2022/05/26 08:36:49;;;;;;;5.03;2.50;;;;;;;16.37;74.67;100057.21;1785468;80;21732;-72
2022/05/26 08:39:16;;;;;;;3.63;2.13;;;;;;;16.51;73.59;100086.78;1778468;80;21432;-72
2022/05/26 08:41:46;;;;;;;3.27;2.43;;;;;;;16.62;71.70;100075.45;1775336;80;21374;-72
2022/05/26 08:44:30;;;;;;;3.70;1.90;;;;;;;16.75;71.17;100059.50;1749877;80;21442;-71
2022/05/26 08:47:05;;;;;;;3.90;2.30;;;;;;;16.90;69.07;100060.45;1761684;80;21325;-72
2022/05/26 08:49:55;;;;;;;3.77;2.13;;;;;;;17.17;68.48;100074.83;1775575;79;21351;-73
2022/05/26 08:52:44;;;;;;;2.63;1.90;;;;;;;17.43;67.28;100060.84;1775583;79;21498;-73
2022/05/26 08:55:25;;;;;;;3.30;1.73;;;;;;;17.69;65.62;100067.64;1744454;81;21646;-71
2022/05/26 08:58:09;;;;;;;3.15;1.87;;;;;;;17.84;64.46;100069.12;1744825;81;21843;-71
2022/05/26 09:00:38;;;;;;;2.40;1.70;;;;;;;18.05;62.89;100083.58;1744896;81;21106;-71
2022/05/26 09:03:27;;;;;;;7.17;1.70;;;;;;;18.27;60.91;100085.33;1749595;80;21698;-72
2022/05/26 09:06:08;;;;;;;3.33;1.70;;;;;;;18.44;60.26;100070.98;1775629;79;22175;-72
2022/05/26 09:14:38;;;;;;;3.83;1.60;;;;;;;18.93;57.47;100076.92;1774433;80;21600;-71
2022/05/26 09:17:11;;;;;;;3.33;1.60;;;;;;;19.01;56.65;100067.16;1744812;82;21020;-71
2022/05/26 09:19:47;;;;;;;3.17;1.77;;;;;;;19.12;56.73;100073.82;1744803;80;21024;-70
2022/05/26 09:22:43;;;;;;;2.37;1.40;;;;;;;18.94;55.35;100083.91;1739603;81;21541;-72
2022/05/26 09:25:40;;;;;;;2.27;1.40;;;;;;;18.94;55.35;100083.91;1744495;81;21536;-71
2022/05/26 09:28:10;;;;;;;3.70;1.60;;;;;;;18.89;55.08;100073.28;1744605;81;21107;-72
2022/05/26 09:30:38;;;;;;;3.53;1.50;;;;;;;18.98;55.68;100068.60;1760571;80;20992;-72
2022/05/26 09:33:20;;;;;;;4.80;1.60;;;;;;;19.13;56.22;100071.34;1772436;80;21209;-72
2022/05/26 09:35:47;;;;;;;2.75;1.17;;;;;;;19.30;53.62;100081.28;1745009;81;21020;-71
2022/05/26 09:38:18;;;;;;;2.23;1.20;;;;;;;19.36;52.20;100069.14;1753173;79;21154;-70
2022/05/26 09:40:48;;;;;;;4.10;1.47;;;;;;;19.37;50.78;100072.08;1713007;82;21057;-71
2022/05/26 09:43:28;;;;;;;4.07;1.60;;;;;;;19.49;50.84;100067.88;1693729;84;21621;-71
2022/05/26 09:45:58;;;;;;;;;;;;;;;19.63;50.66;100086.84;1696664;83;21092;-70
2022/05/26 09:48:30;;;;;;;4.07;1.40;;;;;;;19.76;49.35;100078.80;1693999;84;20487;-71
2022/05/26 09:51:30;;;;;;;3.40;1.40;;;;;;;19.84;48.98;100100.97;1694488;83;21524;-70
2022/05/26 09:53:56;;;;;;;2.70;1.20;;;;;;;19.97;48.86;100067.95;1695021;83;21112;-69
2022/05/26 09:56:42;;;;;;;2.20;1.20;;;;;;;20.05;48.92;100073.88;1694220;83;21483;-71
2022/05/26 09:59:31;;;;;;;2.33;1.10;;;;;;;20.06;47.85;100070.81;1711284;83;21051;-69
2022/05/26 10:02:25;;;;;;;3.67;1.27;;;;;;;20.10;48.07;100081.78;1717045;82;21025;-69
2022/05/26 10:05:15;;;;;;;1.60;1.00;;;;;;;20.22;47.47;100071.00;1707782;83;21325;-72
2022/05/26 10:08:17;;;;;;;4.27;1.20;;;;;;;20.32;47.45;100058.38;1717264;83;20970;-71
2022/05/26 10:11:03;;;;;;;3.00;1.00;;;;;;;20.36;46.64;100067.98;1717970;82;21073;-69
2022/05/26 10:14:09;;;;;;;2.93;1.13;;;;;;;20.35;47.95;100064.48;1716888;83;21073;-69
2022/05/26 10:16:44;;;;;;;4.57;1.30;;;;;;;20.43;47.30;100072.30;1721958;82;21517;-69
2022/05/26 10:19:39;;;;;;;2.57;1.23;;;;;;;20.51;45.71;100074.74;1722388;82;22162;-69
2022/05/26 10:22:29;;;;;;;4.23;1.30;;;;;;;20.60;44.56;100080.87;1706930;82;21092;-69
2022/05/26 10:25:14;;;;;;;2.63;1.07;;;;;;;20.72;44.31;100077.37;1700526;82;20989;-69
2022/05/26 10:27:59;;;;;;;2.77;1.40;;;;;;;20.77;44.29;100091.53;1694477;83;21075;-69
2022/05/26 10:30:50;;;;;;;1.67;1.00;;;;;;;20.78;44.67;100064.61;1684762;83;21110;-69
2022/05/26 10:33:34;;;;;;;2.03;1.27;;;;;;;20.74;43.55;100073.78;1717633;82;21298;-70
2022/05/26 10:36:34;;;;;;;2.67;1.30;;;;;;;20.68;43.88;100068.33;1696178;83;21065;-69
2022/05/26 10:39:36;;;;;;;3.17;1.40;;;;;;;20.82;44.66;100086.44;1678215;82;21527;-70
2022/05/26 10:42:32;;;;;;;2.10;1.27;;;;;;;20.87;44.09;100074.02;1729055;82;21103;-68
2022/05/26 10:45:21;;;;;;;1.40;1.10;;;;;;;20.94;43.85;100084.32;1719320;82;21062;-70
2022/05/26 10:48:10;;;;;;;2.63;1.00;;;;;;;21.04;43.63;100073.02;1712838;82;21090;-69
2022/05/26 10:50:42;;;;;;;1.67;1.17;;;;;;;21.10;43.17;100078.45;1695591;83;21096;-70
2022/05/26 10:53:26;;;;;;;1.70;1.00;;;;;;;21.28;42.34;100069.49;1696391;83;21025;-70
2022/05/26 10:56:28;;;;;;;1.40;0.90;;;;;;;21.46;40.50;100080.95;1698139;82;21083;-70
2022/05/26 10:59:18;;;;;;;;;;;;;;;21.53;40.63;100081.17;1698484;83;21068;-70
2022/05/26 11:01:56;;;;;;;2.77;1.10;;;;;;;21.52;41.27;100064.64;1696222;83;21260;-69
2022/05/26 11:04:44;;;;;;;2.73;1.10;;;;;;;21.44;40.36;100045.95;1721494;82;21331;-70
2022/05/26 11:07:19;;;;;;;4.07;1.10;;;;;;;21.28;40.84;100090.66;1689580;83;21015;-70
2022/05/26 11:09:57;;;;;;;2.27;1.00;;;;;;;21.27;40.70;100087.72;1704342;83;21030;-70
2022/05/26 11:12:53;;;;;;;2.43;1.00;;;;;;;21.42;39.86;100077.31;1702070;83;21071;-70
2022/05/26 11:18:21;;;;;;;3.20;1.27;;;;;;;21.80;38.91;100079.62;1682328;82;21057;-71
2022/05/26 11:20:53;;;;;;;3.13;1.10;;;;;;;21.97;38.87;100101.09;1703562;83;21025;-70
2022/05/26 11:37:11;;;;;;;2.57;1.20;;;;;;;22.55;37.67;100102.15;1795750;78;24651;-69
2022/05/26 11:39:40;;;;;;;3.23;1.20;;;;;;;22.64;36.21;100082.37;1744520;81;21048;-70
2022/05/26 11:42:12;;;;;;;2.47;1.10;;;;;;;22.65;36.43;100081.22;1759022;81;21422;-69
2022/05/26 11:44:56;;;;;;;2.90;1.10;;;;;;;22.53;36.26;100078.56;1760413;81;20987;-69
2022/05/26 11:48:02;;;;;;;3.90;1.47;;;;;;;22.38;36.37;100086.93;1761221;81;21048;-69
2022/05/26 11:51:14;;;;;;;2.67;0.97;;;;;;;22.29;37.02;100078.70;1761212;81;21050;-69
2022/05/26 11:53:44;;;;;;;4.00;1.20;;;;;;;22.31;37.36;100069.06;1761351;81;21034;-69
2022/05/26 11:56:34;;;;;;;2.53;1.00;;;;;;;22.50;37.33;100075.17;1761001;81;21229;-69
2022/05/26 12:12:10;;;;;;;2.33;1.00;;;;;;;23.44;34.45;100074.96;1760518;79;25292;-73
2022/05/26 12:14:52;;;;;;;3.53;1.10;;;;;;;23.26;34.48;100089.53;1724757;82;21189;-72
2022/05/26 12:17:43;;;;;;;3.57;1.00;;;;;;;23.25;35.14;100092.63;1714867;83;21500;-72
2022/05/26 12:20:16;;;;;;;2.90;1.00;;;;;;;23.19;34.98;100082.55;1693905;84;21488;-72
2022/05/26 12:22:57;;;;;;;5.33;1.20;;;;;;;23.11;35.08;100080.82;1695228;83;21080;-72
2022/05/26 12:25:33;;;;;;;2.17;1.15;;;;;;;22.91;35.08;100088.88;1694327;84;20998;-73
2022/05/26 12:28:26;;;;;;;3.80;1.23;;;;;;;22.66;35.26;100077.92;1694702;84;21524;-73
2022/05/26 12:30:58;;;;;;;3.83;1.33;;;;;;;22.57;35.67;100084.87;1694145;84;21274;-73
2022/05/26 12:34:02;;;;;;;1.60;1.00;;;;;;;22.59;35.90;100085.34;1695165;83;21013;-73
2022/05/26 12:36:52;;;;;;;7.27;1.30;;;;;;;22.55;35.10;100079.02;1702470;83;21002;-72
2022/05/26 12:39:54;;;;;;;2.53;1.00;;;;;;;22.57;35.39;100087.60;1723184;83;21049;-73
2022/05/26 12:42:47;;;;;;;3.23;1.03;;;;;;;22.64;35.15;100095.98;1722645;83;21026;-73
2022/05/26 12:45:49;;;;;;;5.73;1.17;;;;;;;22.67;34.45;100100.73;1735550;81;21051;-73
2022/05/26 12:48:41;;;;;;;3.70;1.15;;;;;;;22.73;34.39;100086.84;1723281;83;20990;-73
2022/05/26 12:51:10;;;;;;;;;;;;;;;22.69;35.19;100083.45;1710413;83;21026;-72
2022/05/26 12:53:45;;;;;;;1.73;1.10;;;;;;;22.65;34.95;100082.58;1703121;83;20140;-74
2022/05/26 12:56:11;;;;;;;2.07;1.10;;;;;;;22.60;34.89;100085.55;1722095;83;20993;-72
2022/05/26 12:58:44;;;;;;;4.70;1.17;;;;;;;22.58;34.84;100081.04;1723269;83;21275;-74
2022/05/26 13:01:13;;;;;;;3.67;1.23;;;;;;;22.58;35.23;100082.98;1692795;84;21009;-74
2022/05/26 13:03:47;;;;;;;5.60;1.07;;;;;;;22.61;35.60;100085.78;1694210;84;21017;-72
2022/05/26 13:06:30;;;;;;;3.70;1.30;;;;;;;22.70;34.99;100100.03;1670937;84;21101;-73
2022/05/26 13:09:16;;;;;;;2.57;1.10;;;;;;;22.75;34.81;100085.93;1670051;84;21156;-73
2022/05/26 13:12:00;;;;;;;2.60;1.13;;;;;;;22.71;34.33;100080.39;1666031;86;21124;-73